sensor_id;sensor_type;location;lat;lon;timestamp;temperature;humidity
7920;DHT22;18778;47.610;9.776;2023-02-28T00:00:13;-2.70;99.90
7920;DHT22;18778;47.610;9.776;2023-02-28T00:02:41;-2.80;99.90
7920;DHT22;18778;47.610;9.776;2023-02-28T00:05:07;-2.90;99.90
7920;DHT22;18778;47.610;9.776;2023-02-28T00:07:34;-2.60;99.90
7920;DHT22;18778;47.610;9.776;2023-02-28T00:10:00;-3.10;99.90
7920;DHT22;18778;47.610;9.776;2023-02-28T00:12:26;-3.10;99.90
7920;DHT22;18778;47.610;9.776;2023-02-28T00:14:51;-3.10;99.90
7920;DHT22;18778;47.610;9.776;2023-02-28T00:17:17;-3.10;99.90
7920;DHT22;18778;47.610;9.776;2023-02-28T00:19:47;-2.90;99.90
7920;DHT22;18778;47.610;9.776;2023-02-28T00:22:14;-2.90;99.90
7920;DHT22;18778;47.610;9.776;2023-02-28T00:24:39;-3.00;99.90
7920;DHT22;18778;47.610;9.776;2023-02-28T00:27:05;-3.00;99.90
7920;DHT22;18778;47.610;9.776;2023-02-28T00:29:30;-3.00;99.90
7920;DHT22;18778;47.610;9.776;2023-02-28T00:31:56;-3.00;99.90
7920;DHT22;18778;47.610;9.776;2023-02-28T00:34:21;-2.80;99.90
7920;DHT22;18778;47.610;9.776;2023-02-28T00:36:47;-2.80;99.90
7920;DHT22;18778;47.610;9.776;2023-02-28T00:39:15;-2.70;99.90
7920;DHT22;18778;47.610;9.776;2023-02-28T00:41:41;-3.20;99.90
7920;DHT22;18778;47.610;9.776;2023-02-28T00:44:06;-3.00;99.90
7920;DHT22;18778;47.610;9.776;2023-02-28T00:46:32;-3.00;99.90
7920;DHT22;18778;47.610;9.776;2023-02-28T00:48:57;-3.00;99.90
7920;DHT22;18778;47.610;9.776;2023-02-28T00:51:23;-3.00;99.90
7920;DHT22;18778;47.610;9.776;2023-02-28T00:53:49;-2.90;99.90
7920;DHT22;18778;47.610;9.776;2023-02-28T00:56:14;-2.90;99.90
7920;DHT22;18778;47.610;9.776;2023-02-28T00:58:40;-2.90;99.90
7920;DHT22;18778;47.610;9.776;2023-02-28T01:01:06;-2.90;99.90
7920;DHT22;18778;47.610;9.776;2023-02-28T01:03:32;-2.90;99.90
7920;DHT22;18778;47.610;9.776;2023-02-28T01:05:58;-2.90;99.90
7920;DHT22;18778;47.610;9.776;2023-02-28T01:08:23;-2.50;99.90
7920;DHT22;18778;47.610;9.776;2023-02-28T01:10:49;-2.80;99.90
7920;DHT22;18778;47.610;9.776;2023-02-28T01:13:14;-2.90;99.90
7920;DHT22;18778;47.610;9.776;2023-02-28T01:15:43;-2.90;99.90
7920;DHT22;18778;47.610;9.776;2023-02-28T01:18:10;-2.90;99.90
7920;DHT22;18778;47.610;9.776;2023-02-28T01:20:37;-2.80;99.90
7920;DHT22;18778;47.610;9.776;2023-02-28T01:23:03;-3.00;99.90
7920;DHT22;18778;47.610;9.776;2023-02-28T01:25:28;-2.80;99.90
7920;DHT22;18778;47.610;9.776;2023-02-28T01:30:20;-2.90;99.90
7920;DHT22;18778;47.610;9.776;2023-02-28T01:32:45;-3.00;99.90
7920;DHT22;18778;47.610;9.776;2023-02-28T01:35:11;-3.10;99.90
7920;DHT22;18778;47.610;9.776;2023-02-28T01:37:37;-3.20;99.90
7920;DHT22;18778;47.610;9.776;2023-02-28T01:40:03;-2.80;99.90
7920;DHT22;18778;47.610;9.776;2023-02-28T01:42:28;-2.90;99.90
7920;DHT22;18778;47.610;9.776;2023-02-28T01:45:04;-3.10;99.90
7920;DHT22;18778;47.610;9.776;2023-02-28T01:47:35;-3.20;99.90
7920;DHT22;18778;47.610;9.776;2023-02-28T01:50:06;-3.10;99.90
7920;DHT22;18778;47.610;9.776;2023-02-28T01:52:33;-3.10;99.90
7920;DHT22;18778;47.610;9.776;2023-02-28T01:55:02;-3.20;99.90
7920;DHT22;18778;47.610;9.776;2023-02-28T01:57:32;-3.30;99.90
7920;DHT22;18778;47.610;9.776;2023-02-28T02:00:06;-3.50;99.90
7920;DHT22;18778;47.610;9.776;2023-02-28T02:02:33;-3.10;99.90
7920;DHT22;18778;47.610;9.776;2023-02-28T02:05:15;-3.30;99.90
7920;DHT22;18778;47.610;9.776;2023-02-28T02:07:43;-3.20;99.90
7920;DHT22;18778;47.610;9.776;2023-02-28T02:10:15;-3.40;99.90
7920;DHT22;18778;47.610;9.776;2023-02-28T02:13:08;-3.40;99.90
7920;DHT22;18778;47.610;9.776;2023-02-28T02:18:34;-3.00;99.90
7920;DHT22;18778;47.610;9.776;2023-02-28T02:21:16;-3.60;99.90
7920;DHT22;18778;47.610;9.776;2023-02-28T02:26:38;-3.70;99.90
7920;DHT22;18778;47.610;9.776;2023-02-28T02:34:58;-3.70;99.90
7920;DHT22;18778;47.610;9.776;2023-02-28T02:37:36;-3.40;99.90
7920;DHT22;18778;47.610;9.776;2023-02-28T02:40:19;-3.90;99.90
7920;DHT22;18778;47.610;9.776;2023-02-28T02:42:59;-3.70;99.90
7920;DHT22;18778;47.610;9.776;2023-02-28T02:45:41;-3.90;99.90
7920;DHT22;18778;47.610;9.776;2023-02-28T02:48:12;-4.00;99.90
7920;DHT22;18778;47.610;9.776;2023-02-28T02:50:43;-3.90;99.90
7920;DHT22;18778;47.610;9.776;2023-02-28T02:53:12;-3.60;99.90
7920;DHT22;18778;47.610;9.776;2023-02-28T02:55:43;-4.00;99.90
7920;DHT22;18778;47.610;9.776;2023-02-28T02:58:17;-3.90;99.90
7920;DHT22;18778;47.610;9.776;2023-02-28T03:00:47;-4.00;99.90
7920;DHT22;18778;47.610;9.776;2023-02-28T03:03:16;-4.10;99.90
7920;DHT22;18778;47.610;9.776;2023-02-28T03:05:49;-4.00;99.90
7920;DHT22;18778;47.610;9.776;2023-02-28T03:08:15;-4.10;99.90
7920;DHT22;18778;47.610;9.776;2023-02-28T03:10:48;-1.50;99.90
7920;DHT22;18778;47.610;9.776;2023-02-28T03:19:02;-3.90;99.90
7920;DHT22;18778;47.610;9.776;2023-02-28T03:21:44;-4.20;99.90
7920;DHT22;18778;47.610;9.776;2023-02-28T03:25:16;-4.20;99.90
7920;DHT22;18778;47.610;9.776;2023-02-28T03:27:29;-4.20;99.90
7920;DHT22;18778;47.610;9.776;2023-02-28T03:32:33;-4.00;99.90
7920;DHT22;18778;47.610;9.776;2023-02-28T03:35:14;-4.30;99.90
7920;DHT22;18778;47.610;9.776;2023-02-28T03:37:49;-4.40;99.90
7920;DHT22;18778;47.610;9.776;2023-02-28T03:40:20;-4.30;99.90
7920;DHT22;18778;47.610;9.776;2023-02-28T03:42:51;-4.20;99.90
7920;DHT22;18778;47.610;9.776;2023-02-28T03:45:25;-4.60;99.90
7920;DHT22;18778;47.610;9.776;2023-02-28T03:47:59;-4.20;99.90
7920;DHT22;18778;47.610;9.776;2023-02-28T03:50:44;-4.50;99.90
7920;DHT22;18778;47.610;9.776;2023-02-28T03:53:17;-4.60;99.90
7920;DHT22;18778;47.610;9.776;2023-02-28T03:55:50;-4.70;99.90
7920;DHT22;18778;47.610;9.776;2023-02-28T03:59:01;-4.50;99.90
7920;DHT22;18778;47.610;9.776;2023-02-28T04:01:28;-4.40;99.90
7920;DHT22;18778;47.610;9.776;2023-02-28T04:03:55;-5.20;99.90
7920;DHT22;18778;47.610;9.776;2023-02-28T04:06:22;-4.10;99.90
7920;DHT22;18778;47.610;9.776;2023-02-28T04:08:49;-4.40;99.90
7920;DHT22;18778;47.610;9.776;2023-02-28T04:11:27;-4.30;99.90
7920;DHT22;18778;47.610;9.776;2023-02-28T04:13:54;-4.20;99.90
7920;DHT22;18778;47.610;9.776;2023-02-28T04:16:21;-4.10;99.90
7920;DHT22;18778;47.610;9.776;2023-02-28T04:18:46;-4.40;99.90
7920;DHT22;18778;47.610;9.776;2023-02-28T04:21:12;-4.30;99.90
7920;DHT22;18778;47.610;9.776;2023-02-28T04:23:38;-4.30;99.90
7920;DHT22;18778;47.610;9.776;2023-02-28T04:26:04;-4.40;99.90
7920;DHT22;18778;47.610;9.776;2023-02-28T04:28:31;-4.20;99.90
7920;DHT22;18778;47.610;9.776;2023-02-28T04:30:58;-4.20;99.90
7920;DHT22;18778;47.610;9.776;2023-02-28T04:33:23;-4.20;99.90
7920;DHT22;18778;47.610;9.776;2023-02-28T04:36:02;-4.20;99.90
7920;DHT22;18778;47.610;9.776;2023-02-28T04:38:32;-4.10;99.90
7920;DHT22;18778;47.610;9.776;2023-02-28T04:40:59;-3.80;99.90
7920;DHT22;18778;47.610;9.776;2023-02-28T04:43:27;-3.90;99.90
7920;DHT22;18778;47.610;9.776;2023-02-28T04:45:53;-4.20;99.90
7920;DHT22;18778;47.610;9.776;2023-02-28T04:48:25;-3.90;99.90
7920;DHT22;18778;47.610;9.776;2023-02-28T04:50:52;-3.70;99.90
7920;DHT22;18778;47.610;9.776;2023-02-28T04:53:18;-4.00;99.90
7920;DHT22;18778;47.610;9.776;2023-02-28T04:55:44;-4.30;99.90
7920;DHT22;18778;47.610;9.776;2023-02-28T04:58:09;-4.10;99.90
7920;DHT22;18778;47.610;9.776;2023-02-28T05:00:35;-4.10;99.90
7920;DHT22;18778;47.610;9.776;2023-02-28T05:03:01;-4.10;99.90
7920;DHT22;18778;47.610;9.776;2023-02-28T05:05:26;-4.00;99.90
7920;DHT22;18778;47.610;9.776;2023-02-28T05:07:52;-4.00;99.90
7920;DHT22;18778;47.610;9.776;2023-02-28T05:10:19;-3.90;99.90
7920;DHT22;18778;47.610;9.776;2023-02-28T05:12:44;-3.80;99.90
7920;DHT22;18778;47.610;9.776;2023-02-28T05:15:13;-4.00;99.90
7920;DHT22;18778;47.610;9.776;2023-02-28T05:17:39;-3.90;99.90
7920;DHT22;18778;47.610;9.776;2023-02-28T05:20:05;-4.00;99.90
7920;DHT22;18778;47.610;9.776;2023-02-28T05:22:31;-3.80;99.90
7920;DHT22;18778;47.610;9.776;2023-02-28T05:24:57;-4.10;99.90
7920;DHT22;18778;47.610;9.776;2023-02-28T05:27:23;-4.00;99.90
7920;DHT22;18778;47.610;9.776;2023-02-28T05:29:48;-3.90;99.90
7920;DHT22;18778;47.610;9.776;2023-02-28T05:32:14;-3.80;99.90
7920;DHT22;18778;47.610;9.776;2023-02-28T05:34:40;-4.00;99.90
7920;DHT22;18778;47.610;9.776;2023-02-28T05:37:10;-4.10;99.90
7920;DHT22;18778;47.610;9.776;2023-02-28T05:39:36;-4.10;99.90
7920;DHT22;18778;47.610;9.776;2023-02-28T05:42:01;-4.00;99.90
7920;DHT22;18778;47.610;9.776;2023-02-28T05:44:27;-3.70;99.90
7920;DHT22;18778;47.610;9.776;2023-02-28T05:46:52;-4.20;99.90
7920;DHT22;18778;47.610;9.776;2023-02-28T05:49:18;-4.10;99.90
7920;DHT22;18778;47.610;9.776;2023-02-28T05:51:43;-4.10;99.90
7920;DHT22;18778;47.610;9.776;2023-02-28T05:54:09;-4.20;99.90
7920;DHT22;18778;47.610;9.776;2023-02-28T05:56:34;-4.10;99.90
7920;DHT22;18778;47.610;9.776;2023-02-28T05:59:00;-4.00;99.90
7920;DHT22;18778;47.610;9.776;2023-02-28T06:01:34;-3.90;99.90
7920;DHT22;18778;47.610;9.776;2023-02-28T06:04:00;-4.00;99.90
7920;DHT22;18778;47.610;9.776;2023-02-28T06:06:26;-4.10;99.90
7920;DHT22;18778;47.610;9.776;2023-02-28T06:08:52;-4.10;99.90
7920;DHT22;18778;47.610;9.776;2023-02-28T06:11:17;-4.20;99.90
7920;DHT22;18778;47.610;9.776;2023-02-28T06:13:45;-3.90;99.90
7920;DHT22;18778;47.610;9.776;2023-02-28T06:16:11;-4.30;99.90
7920;DHT22;18778;47.610;9.776;2023-02-28T06:18:37;-4.20;99.90
7920;DHT22;18778;47.610;9.776;2023-02-28T06:21:03;-4.30;99.90
7920;DHT22;18778;47.610;9.776;2023-02-28T06:23:28;-4.30;99.90
7920;DHT22;18778;47.610;9.776;2023-02-28T06:25:54;-4.30;99.90
7920;DHT22;18778;47.610;9.776;2023-02-28T06:28:24;-4.10;99.90
7920;DHT22;18778;47.610;9.776;2023-02-28T06:30:49;-4.40;99.90
7920;DHT22;18778;47.610;9.776;2023-02-28T06:33:15;-4.50;99.90
7920;DHT22;18778;47.610;9.776;2023-02-28T06:35:44;-4.30;99.90
7920;DHT22;18778;47.610;9.776;2023-02-28T06:38:09;-3.90;99.90
7920;DHT22;18778;47.610;9.776;2023-02-28T06:40:37;-4.10;99.90
7920;DHT22;18778;47.610;9.776;2023-02-28T06:45:29;-4.00;99.90
7920;DHT22;18778;47.610;9.776;2023-02-28T06:47:55;-4.00;99.90
7920;DHT22;18778;47.610;9.776;2023-02-28T06:50:20;-4.00;99.90
7920;DHT22;18778;47.610;9.776;2023-02-28T06:52:47;-3.90;99.90
7920;DHT22;18778;47.610;9.776;2023-02-28T06:55:12;-3.90;99.90
7920;DHT22;18778;47.610;9.776;2023-02-28T06:57:38;-3.90;99.90
7920;DHT22;18778;47.610;9.776;2023-02-28T07:00:06;-3.90;99.90
7920;DHT22;18778;47.610;9.776;2023-02-28T07:02:33;-3.50;99.90
7920;DHT22;18778;47.610;9.776;2023-02-28T07:04:59;-3.90;99.90
7920;DHT22;18778;47.610;9.776;2023-02-28T07:07:24;-3.50;99.90
7920;DHT22;18778;47.610;9.776;2023-02-28T07:09:50;-3.30;99.90
7920;DHT22;18778;47.610;9.776;2023-02-28T07:12:15;-3.30;99.90
7920;DHT22;18778;47.610;9.776;2023-02-28T07:14:41;-3.20;99.90
7920;DHT22;18778;47.610;9.776;2023-02-28T07:17:08;-3.00;99.90
7920;DHT22;18778;47.610;9.776;2023-02-28T07:19:34;-2.70;99.90
7920;DHT22;18778;47.610;9.776;2023-02-28T07:21:59;-2.90;99.90
7920;DHT22;18778;47.610;9.776;2023-02-28T07:24:26;-3.00;99.90
7920;DHT22;18778;47.610;9.776;2023-02-28T07:26:53;-0.60;99.90
7920;DHT22;18778;47.610;9.776;2023-02-28T07:29:19;-1.90;99.90
7920;DHT22;18778;47.610;9.776;2023-02-28T07:31:44;-2.40;99.90
7920;DHT22;18778;47.610;9.776;2023-02-28T07:34:12;-2.40;99.90
7920;DHT22;18778;47.610;9.776;2023-02-28T07:36:37;-2.50;99.90
7920;DHT22;18778;47.610;9.776;2023-02-28T07:39:03;-2.50;99.90
7920;DHT22;18778;47.610;9.776;2023-02-28T07:41:29;-2.30;99.90
7920;DHT22;18778;47.610;9.776;2023-02-28T07:43:58;-2.00;99.90
7920;DHT22;18778;47.610;9.776;2023-02-28T07:46:25;-2.20;99.90
7920;DHT22;18778;47.610;9.776;2023-02-28T07:48:51;-2.10;99.90
7920;DHT22;18778;47.610;9.776;2023-02-28T07:51:18;-2.00;99.90
7920;DHT22;18778;47.610;9.776;2023-02-28T07:56:09;-1.40;99.90
7920;DHT22;18778;47.610;9.776;2023-02-28T07:58:36;-0.90;99.90
7920;DHT22;18778;47.610;9.776;2023-02-28T08:01:09;-0.40;99.90
7920;DHT22;18778;47.610;9.776;2023-02-28T08:03:36;0.30;99.90
7920;DHT22;18778;47.610;9.776;2023-02-28T08:06:04;0.50;99.90
7920;DHT22;18778;47.610;9.776;2023-02-28T08:08:29;0.50;99.90
7920;DHT22;18778;47.610;9.776;2023-02-28T08:11:01;0.10;99.90
7920;DHT22;18778;47.610;9.776;2023-02-28T08:13:28;-0.40;99.90
7920;DHT22;18778;47.610;9.776;2023-02-28T08:15:55;-0.50;99.90
7920;DHT22;18778;47.610;9.776;2023-02-28T08:18:21;-0.70;99.90
7920;DHT22;18778;47.610;9.776;2023-02-28T08:20:47;-0.80;99.90
7920;DHT22;18778;47.610;9.776;2023-02-28T08:23:13;-0.80;99.90
7920;DHT22;18778;47.610;9.776;2023-02-28T08:25:39;-0.90;99.90
7920;DHT22;18778;47.610;9.776;2023-02-28T08:28:05;-1.20;99.90
7920;DHT22;18778;47.610;9.776;2023-02-28T08:30:30;-1.20;99.90
7920;DHT22;18778;47.610;9.776;2023-02-28T08:33:05;-1.20;99.90
7920;DHT22;18778;47.610;9.776;2023-02-28T08:35:30;-1.00;99.90
7920;DHT22;18778;47.610;9.776;2023-02-28T08:37:56;-1.00;99.90
7920;DHT22;18778;47.610;9.776;2023-02-28T08:40:21;-1.10;99.90
7920;DHT22;18778;47.610;9.776;2023-02-28T08:42:48;-1.00;99.90
7920;DHT22;18778;47.610;9.776;2023-02-28T08:45:14;-0.90;99.90
7920;DHT22;18778;47.610;9.776;2023-02-28T08:47:40;-0.80;99.90
7920;DHT22;18778;47.610;9.776;2023-02-28T08:50:07;-0.50;99.90
7920;DHT22;18778;47.610;9.776;2023-02-28T08:52:33;-0.60;99.90
7920;DHT22;18778;47.610;9.776;2023-02-28T08:54:58;-0.60;99.90
7920;DHT22;18778;47.610;9.776;2023-02-28T08:57:24;-0.50;99.90
7920;DHT22;18778;47.610;9.776;2023-02-28T08:59:51;-0.20;99.90
7920;DHT22;18778;47.610;9.776;2023-02-28T09:02:18;-0.10;99.90
7920;DHT22;18778;47.610;9.776;2023-02-28T09:04:43;0.00;99.90
7920;DHT22;18778;47.610;9.776;2023-02-28T09:07:11;0.10;99.90
7920;DHT22;18778;47.610;9.776;2023-02-28T09:09:37;0.20;99.90
7920;DHT22;18778;47.610;9.776;2023-02-28T09:12:02;0.50;99.90
7920;DHT22;18778;47.610;9.776;2023-02-28T09:14:28;0.20;99.90
7920;DHT22;18778;47.610;9.776;2023-02-28T09:16:53;0.40;99.90
7920;DHT22;18778;47.610;9.776;2023-02-28T09:19:20;0.50;99.90
7920;DHT22;18778;47.610;9.776;2023-02-28T09:21:54;0.60;99.90
7920;DHT22;18778;47.610;9.776;2023-02-28T09:24:20;0.60;99.90
7920;DHT22;18778;47.610;9.776;2023-02-28T09:26:45;0.80;99.90
7920;DHT22;18778;47.610;9.776;2023-02-28T09:29:11;1.10;99.90
7920;DHT22;18778;47.610;9.776;2023-02-28T09:31:37;1.50;99.90
7920;DHT22;18778;47.610;9.776;2023-02-28T09:34:04;1.70;99.90
7920;DHT22;18778;47.610;9.776;2023-02-28T09:36:29;2.30;99.90
7920;DHT22;18778;47.610;9.776;2023-02-28T09:38:55;2.20;99.90
7920;DHT22;18778;47.610;9.776;2023-02-28T09:41:23;2.40;99.90
7920;DHT22;18778;47.610;9.776;2023-02-28T09:43:55;2.50;99.90
7920;DHT22;18778;47.610;9.776;2023-02-28T09:46:34;3.10;99.90
7920;DHT22;18778;47.610;9.776;2023-02-28T09:49:05;2.60;99.90
7920;DHT22;18778;47.610;9.776;2023-02-28T09:51:47;2.70;99.90
7920;DHT22;18778;47.610;9.776;2023-02-28T09:54:21;2.80;99.90
7920;DHT22;18778;47.610;9.776;2023-02-28T09:56:55;3.20;99.90
7920;DHT22;18778;47.610;9.776;2023-02-28T10:05:57;3.40;99.90
7920;DHT22;18778;47.610;9.776;2023-02-28T10:08:27;3.10;99.90
7920;DHT22;18778;47.610;9.776;2023-02-28T10:11:01;3.40;99.90
7920;DHT22;18778;47.610;9.776;2023-02-28T10:13:57;3.40;99.90
7920;DHT22;18778;47.610;9.776;2023-02-28T10:16:41;3.80;99.90
7920;DHT22;18778;47.610;9.776;2023-02-28T10:19:32;3.30;99.90
7920;DHT22;18778;47.610;9.776;2023-02-28T10:22:14;3.40;99.90
7920;DHT22;18778;47.610;9.776;2023-02-28T10:27:21;3.70;99.90
7920;DHT22;18778;47.610;9.776;2023-02-28T10:29:52;3.70;99.90
7920;DHT22;18778;47.610;9.776;2023-02-28T10:32:19;3.80;99.90
7920;DHT22;18778;47.610;9.776;2023-02-28T10:34:58;3.70;99.90
7920;DHT22;18778;47.610;9.776;2023-02-28T10:37:25;4.20;99.90
7920;DHT22;18778;47.610;9.776;2023-02-28T10:39:51;3.40;99.90
7920;DHT22;18778;47.610;9.776;2023-02-28T10:42:28;3.00;99.90
7920;DHT22;18778;47.610;9.776;2023-02-28T10:47:33;2.70;99.90
7920;DHT22;18778;47.610;9.776;2023-02-28T10:50:00;3.10;99.90
7920;DHT22;18778;47.610;9.776;2023-02-28T10:52:52;3.30;99.90
7920;DHT22;18778;47.610;9.776;2023-02-28T10:55:25;4.40;99.90
7920;DHT22;18778;47.610;9.776;2023-02-28T10:57:52;2.70;99.90
7920;DHT22;18778;47.610;9.776;2023-02-28T11:00:23;2.70;99.90
7920;DHT22;18778;47.610;9.776;2023-02-28T11:02:51;3.30;99.90
7920;DHT22;18778;47.610;9.776;2023-02-28T11:10:58;5.10;99.90
7920;DHT22;18778;47.610;9.776;2023-02-28T11:13:36;4.90;99.90
7920;DHT22;18778;47.610;9.776;2023-02-28T11:16:07;4.90;99.90
7920;DHT22;18778;47.610;9.776;2023-02-28T11:18:50;5.20;99.90
7920;DHT22;18778;47.610;9.776;2023-02-28T11:21:23;6.00;99.90
7920;DHT22;18778;47.610;9.776;2023-02-28T11:24:00;5.80;99.90
7920;DHT22;18778;47.610;9.776;2023-02-28T11:26:44;6.20;99.90
7920;DHT22;18778;47.610;9.776;2023-02-28T11:32:16;6.70;99.90
7920;DHT22;18778;47.610;9.776;2023-02-28T11:34:43;6.60;99.90
7920;DHT22;18778;47.610;9.776;2023-02-28T11:37:17;6.00;99.90
7920;DHT22;18778;47.610;9.776;2023-02-28T11:39:45;7.00;99.90
7920;DHT22;18778;47.610;9.776;2023-02-28T11:45:31;8.00;99.90
7920;DHT22;18778;47.610;9.776;2023-02-28T11:48:22;7.80;99.90
7920;DHT22;18778;47.610;9.776;2023-02-28T11:51:10;7.90;99.90
7920;DHT22;18778;47.610;9.776;2023-02-28T11:56:47;7.40;99.90
7920;DHT22;18778;47.610;9.776;2023-02-28T11:59:26;7.10;99.90
7920;DHT22;18778;47.610;9.776;2023-02-28T12:04:44;8.30;99.90
7920;DHT22;18778;47.610;9.776;2023-02-28T12:10:34;8.70;99.90
7920;DHT22;18778;47.610;9.776;2023-02-28T12:13:21;9.20;99.00
7920;DHT22;18778;47.610;9.776;2023-02-28T12:15:58;8.20;98.70
7920;DHT22;18778;47.610;9.776;2023-02-28T12:18:53;8.00;98.80
7920;DHT22;18778;47.610;9.776;2023-02-28T12:24:22;8.40;97.50
7920;DHT22;18778;47.610;9.776;2023-02-28T12:26:53;7.70;98.20
7920;DHT22;18778;47.610;9.776;2023-02-28T12:29:29;7.00;97.30
7920;DHT22;18778;47.610;9.776;2023-02-28T12:34:37;7.30;99.90
7920;DHT22;18778;47.610;9.776;2023-02-28T12:37:11;7.50;99.70
7920;DHT22;18778;47.610;9.776;2023-02-28T12:39:45;8.00;99.90
7920;DHT22;18778;47.610;9.776;2023-02-28T12:42:29;7.90;99.90
7920;DHT22;18778;47.610;9.776;2023-02-28T12:45:07;8.80;99.80
7920;DHT22;18778;47.610;9.776;2023-02-28T12:47:34;8.20;98.50
7920;DHT22;18778;47.610;9.776;2023-02-28T12:50:04;7.70;99.90
7920;DHT22;18778;47.610;9.776;2023-02-28T12:52:52;8.20;99.90
7920;DHT22;18778;47.610;9.776;2023-02-28T12:55:46;8.20;99.90
7920;DHT22;18778;47.610;9.776;2023-02-28T12:58:20;7.60;99.00
7920;DHT22;18778;47.610;9.776;2023-02-28T13:09:23;8.10;99.50
7920;DHT22;18778;47.610;9.776;2023-02-28T13:11:53;7.80;99.90
7920;DHT22;18778;47.610;9.776;2023-02-28T13:19:43;9.10;98.70
7920;DHT22;18778;47.610;9.776;2023-02-28T13:22:19;9.70;98.20
7920;DHT22;18778;47.610;9.776;2023-02-28T13:24:50;9.60;97.90
7920;DHT22;18778;47.610;9.776;2023-02-28T13:29:52;9.70;96.90
7920;DHT22;18778;47.610;9.776;2023-02-28T13:32:33;9.30;97.40
7920;DHT22;18778;47.610;9.776;2023-02-28T13:39:54;9.20;97.00
7920;DHT22;18778;47.610;9.776;2023-02-28T13:47:42;10.00;97.50
7920;DHT22;18778;47.610;9.776;2023-02-28T13:52:56;10.80;91.30
7920;DHT22;18778;47.610;9.776;2023-02-28T14:06:37;10.60;86.60
7920;DHT22;18778;47.610;9.776;2023-02-28T14:09:30;10.40;78.40
7920;DHT22;18778;47.610;9.776;2023-02-28T14:11:58;12.80;86.60
7920;DHT22;18778;47.610;9.776;2023-02-28T14:17:14;10.20;90.40
7920;DHT22;18778;47.610;9.776;2023-02-28T14:19:44;9.90;76.70
7920;DHT22;18778;47.610;9.776;2023-02-28T14:25:33;10.10;84.20
7920;DHT22;18778;47.610;9.776;2023-02-28T14:28:28;8.40;83.30
7920;DHT22;18778;47.610;9.776;2023-02-28T14:31:17;9.90;92.40
7920;DHT22;18778;47.610;9.776;2023-02-28T14:36:33;9.50;81.20
7920;DHT22;18778;47.610;9.776;2023-02-28T14:41:38;9.90;92.60
7920;DHT22;18778;47.610;9.776;2023-02-28T14:44:22;11.70;86.20
7920;DHT22;18778;47.610;9.776;2023-02-28T14:46:53;10.10;92.00
7920;DHT22;18778;47.610;9.776;2023-02-28T14:49:25;8.70;77.50
7920;DHT22;18778;47.610;9.776;2023-02-28T14:52:15;8.50;80.00
7920;DHT22;18778;47.610;9.776;2023-02-28T14:54:43;8.80;80.40
7920;DHT22;18778;47.610;9.776;2023-02-28T14:57:24;8.10;82.50
7920;DHT22;18778;47.610;9.776;2023-02-28T15:02:50;7.20;94.30
7920;DHT22;18778;47.610;9.776;2023-02-28T15:05:25;8.20;83.10
7920;DHT22;18778;47.610;9.776;2023-02-28T15:08:11;8.20;85.20
7920;DHT22;18778;47.610;9.776;2023-02-28T15:10:38;7.80;85.80
7920;DHT22;18778;47.610;9.776;2023-02-28T15:13:07;6.80;89.00
7920;DHT22;18778;47.610;9.776;2023-02-28T15:18:51;6.50;91.40
7920;DHT22;18778;47.610;9.776;2023-02-28T15:21:29;4.50;95.70
7920;DHT22;18778;47.610;9.776;2023-02-28T15:26:29;4.20;92.70
7920;DHT22;18778;47.610;9.776;2023-02-28T15:29:00;3.50;98.20
7920;DHT22;18778;47.610;9.776;2023-02-28T15:31:32;3.40;93.00
7920;DHT22;18778;47.610;9.776;2023-02-28T15:34:03;3.50;93.30
7920;DHT22;18778;47.610;9.776;2023-02-28T15:36:30;2.90;98.90
7920;DHT22;18778;47.610;9.776;2023-02-28T15:39:01;2.70;96.10
7920;DHT22;18778;47.610;9.776;2023-02-28T15:41:37;2.40;95.30
7920;DHT22;18778;47.610;9.776;2023-02-28T15:44:35;2.20;96.30
7920;DHT22;18778;47.610;9.776;2023-02-28T15:47:06;2.20;95.90
7920;DHT22;18778;47.610;9.776;2023-02-28T15:49:47;2.40;96.20
7920;DHT22;18778;47.610;9.776;2023-02-28T15:52:27;2.20;96.10
7920;DHT22;18778;47.610;9.776;2023-02-28T15:54:53;1.70;98.00
7920;DHT22;18778;47.610;9.776;2023-02-28T15:57:22;1.60;97.70
7920;DHT22;18778;47.610;9.776;2023-02-28T16:00:02;1.50;98.70
7920;DHT22;18778;47.610;9.776;2023-02-28T16:02:32;1.50;99.90
7920;DHT22;18778;47.610;9.776;2023-02-28T16:04:59;1.20;99.20
7920;DHT22;18778;47.610;9.776;2023-02-28T16:07:25;0.40;98.00
7920;DHT22;18778;47.610;9.776;2023-02-28T16:09:51;1.00;99.80
7920;DHT22;18778;47.610;9.776;2023-02-28T16:12:18;0.90;99.90
7920;DHT22;18778;47.610;9.776;2023-02-28T16:14:44;0.80;99.90
7920;DHT22;18778;47.610;9.776;2023-02-28T16:17:26;0.80;99.90
7920;DHT22;18778;47.610;9.776;2023-02-28T16:19:52;0.60;99.90
7920;DHT22;18778;47.610;9.776;2023-02-28T16:22:18;0.60;99.90
7920;DHT22;18778;47.610;9.776;2023-02-28T16:24:43;0.50;99.90
7920;DHT22;18778;47.610;9.776;2023-02-28T16:27:19;0.50;99.90
7920;DHT22;18778;47.610;9.776;2023-02-28T16:29:45;0.50;99.90
7920;DHT22;18778;47.610;9.776;2023-02-28T16:32:14;0.50;99.90
7920;DHT22;18778;47.610;9.776;2023-02-28T16:34:39;0.40;99.90
7920;DHT22;18778;47.610;9.776;2023-02-28T16:37:14;0.40;99.90
7920;DHT22;18778;47.610;9.776;2023-02-28T16:39:41;1.20;99.90
7920;DHT22;18778;47.610;9.776;2023-02-28T16:42:15;-0.10;99.90
7920;DHT22;18778;47.610;9.776;2023-02-28T16:44:41;0.30;99.90
7920;DHT22;18778;47.610;9.776;2023-02-28T16:47:10;0.20;99.90
7920;DHT22;18778;47.610;9.776;2023-02-28T16:49:35;0.20;99.90
7920;DHT22;18778;47.610;9.776;2023-02-28T16:52:01;0.10;99.90
7920;DHT22;18778;47.610;9.776;2023-02-28T16:54:26;0.30;99.90
7920;DHT22;18778;47.610;9.776;2023-02-28T16:56:52;0.20;99.90
7920;DHT22;18778;47.610;9.776;2023-02-28T16:59:23;0.30;99.90
7920;DHT22;18778;47.610;9.776;2023-02-28T17:01:50;0.20;99.90
7920;DHT22;18778;47.610;9.776;2023-02-28T17:04:16;0.00;99.90
7920;DHT22;18778;47.610;9.776;2023-02-28T17:06:42;0.00;99.90
7920;DHT22;18778;47.610;9.776;2023-02-28T17:09:16;0.00;99.90
7920;DHT22;18778;47.610;9.776;2023-02-28T17:11:42;0.20;99.90
7920;DHT22;18778;47.610;9.776;2023-02-28T17:14:07;-0.10;99.90
7920;DHT22;18778;47.610;9.776;2023-02-28T17:16:35;-0.30;99.90
7920;DHT22;18778;47.610;9.776;2023-02-28T17:19:04;-0.30;99.90
7920;DHT22;18778;47.610;9.776;2023-02-28T17:21:31;-0.60;99.90
7920;DHT22;18778;47.610;9.776;2023-02-28T17:23:58;-0.60;99.90
7920;DHT22;18778;47.610;9.776;2023-02-28T17:26:25;-0.50;99.90
7920;DHT22;18778;47.610;9.776;2023-02-28T17:28:52;-0.40;99.90
7920;DHT22;18778;47.610;9.776;2023-02-28T17:31:19;-0.40;99.90
7920;DHT22;18778;47.610;9.776;2023-02-28T17:33:44;-0.70;99.90
7920;DHT22;18778;47.610;9.776;2023-02-28T17:36:18;-0.70;99.90
7920;DHT22;18778;47.610;9.776;2023-02-28T17:38:47;-0.50;99.90
7920;DHT22;18778;47.610;9.776;2023-02-28T17:41:12;-0.80;99.90
7920;DHT22;18778;47.610;9.776;2023-02-28T17:43:38;-0.80;99.90
7920;DHT22;18778;47.610;9.776;2023-02-28T17:46:05;-0.80;99.90
7920;DHT22;18778;47.610;9.776;2023-02-28T17:48:32;-1.00;99.90
7920;DHT22;18778;47.610;9.776;2023-02-28T17:50:57;-1.00;99.90
7920;DHT22;18778;47.610;9.776;2023-02-28T17:53:23;-1.00;99.90
7920;DHT22;18778;47.610;9.776;2023-02-28T17:55:52;-1.10;99.90
7920;DHT22;18778;47.610;9.776;2023-02-28T17:58:17;-1.20;99.90
7920;DHT22;18778;47.610;9.776;2023-02-28T18:00:44;-1.20;99.90
7920;DHT22;18778;47.610;9.776;2023-02-28T18:03:10;-1.00;99.90
7920;DHT22;18778;47.610;9.776;2023-02-28T18:05:38;-1.20;99.90
7920;DHT22;18778;47.610;9.776;2023-02-28T18:08:03;-1.40;99.90
7920;DHT22;18778;47.610;9.776;2023-02-28T18:10:29;-1.20;99.90
7920;DHT22;18778;47.610;9.776;2023-02-28T18:12:58;-1.40;99.90
7920;DHT22;18778;47.610;9.776;2023-02-28T18:15:24;-1.60;99.90